createdAt,value
2024-05-09T00:04:53.673Z,-4.18
2024-05-09T00:09:59.805Z,-4.35
2024-05-09T00:15:09.610Z,-4.75
2024-05-09T00:20:20.526Z,-4.45
2024-05-09T00:25:30.820Z,-4.14
2024-05-09T00:30:39.154Z,-4.14
2024-05-09T00:35:45.167Z,-4.64
2024-05-09T00:40:51.074Z,-4.51
2024-05-09T00:45:59.389Z,-4.57
2024-05-09T00:51:06.419Z,-4.21
2024-05-09T00:56:14.478Z,-4.38
2024-05-09T01:01:26.542Z,-4.12
2024-05-09T01:06:32.585Z,-3.86
2024-05-09T01:11:39.782Z,-3.71
2024-05-09T01:16:48.662Z,-3.95
2024-05-09T01:21:54.477Z,-3.60
2024-05-09T01:27:02.845Z,-3.72
2024-05-09T01:32:09.227Z,-3.72
2024-05-09T01:37:15.528Z,-3.58
2024-05-09T01:42:24.094Z,-3.80
2024-05-09T01:47:30.195Z,-4.06
2024-05-09T01:52:38.943Z,-4.09
2024-05-09T01:57:47.382Z,-3.67
2024-05-09T02:02:53.369Z,-3.89
2024-05-09T02:07:59.453Z,-3.72
2024-05-09T02:13:09.542Z,-3.81
2024-05-09T02:18:15.858Z,-4.15
2024-05-09T02:23:22.594Z,-4.07
2024-05-09T02:28:31.251Z,-4.40
2024-05-09T02:33:37.633Z,-6.00
2024-05-09T02:38:43.924Z,-5.62
2024-05-09T02:43:52.602Z,-6.95
2024-05-09T02:48:58.469Z,-6.29
2024-05-09T02:54:04.037Z,-6.47
2024-05-09T02:59:12.610Z,-6.47
2024-05-09T03:04:18.997Z,-7.84
2024-05-09T03:09:26.813Z,-6.45
2024-05-09T03:14:35.414Z,-6.57
2024-05-09T03:19:41.299Z,-5.72
2024-05-09T03:24:47.019Z,-5.50
2024-05-09T03:29:55.471Z,-5.22
2024-05-09T03:35:01.313Z,-4.71
2024-05-09T03:40:11.919Z,-4.96
2024-05-09T03:45:26.124Z,-4.59
2024-05-09T03:50:35.559Z,-4.82
2024-05-09T03:55:42.419Z,-5.03
2024-05-09T04:00:51.042Z,-4.50
2024-05-09T04:05:57.013Z,-4.80
2024-05-09T04:11:02.814Z,-4.68
2024-05-09T04:16:13.658Z,-4.36
2024-05-09T04:21:19.495Z,-4.10
2024-05-09T04:26:25.387Z,-3.27
2024-05-09T04:31:38.953Z,-3.56
2024-05-09T04:36:44.974Z,-4.29
2024-05-09T04:41:51.024Z,-4.55
2024-05-09T04:46:59.623Z,-3.79
2024-05-09T04:52:05.728Z,-3.82
2024-05-09T04:57:13.606Z,-4.36
2024-05-09T05:02:22.247Z,-3.69
2024-05-09T05:07:28.255Z,-3.48
2024-05-09T05:12:50.232Z,-2.87
2024-05-09T05:17:59.032Z,-1.62
2024-05-09T05:23:05.181Z,-1.65
2024-05-09T05:28:11.563Z,-1.94
2024-05-09T05:33:22.814Z,-2.15
2024-05-09T05:38:30.305Z,-1.75
2024-05-09T05:43:37.433Z,-2.13
2024-05-09T05:48:46.195Z,-1.79
2024-05-09T05:53:52.520Z,-1.06
2024-05-09T05:58:58.577Z,-0.52
2024-05-09T06:04:07.172Z,-0.30
2024-05-09T06:09:27.778Z,-0.41
2024-05-09T06:14:34.051Z,0.22
2024-05-09T06:19:42.825Z,-0.66
2024-05-09T06:24:48.946Z,-0.06
2024-05-09T06:29:54.968Z,1.30
2024-05-09T06:35:03.647Z,1.59
2024-05-09T06:40:12.610Z,1.94
2024-05-09T06:45:20.606Z,1.95
2024-05-09T06:50:36.818Z,1.42
2024-05-09T06:55:46.068Z,1.83
2024-05-09T07:00:52.160Z,2.21
2024-05-09T07:06:00.905Z,2.42
2024-05-09T07:11:07.338Z,2.82
2024-05-09T07:16:13.411Z,2.47
2024-05-09T07:21:22.083Z,1.42
2024-05-09T07:26:28.127Z,1.99
2024-05-09T07:31:34.198Z,1.86
2024-05-09T07:36:42.991Z,2.24
2024-05-09T07:41:49.077Z,2.09
2024-05-09T07:48:13.954Z,2.05
2024-05-09T07:53:30.559Z,2.44
2024-05-09T07:57:49.932Z,2.49
2024-05-09T08:02:56.053Z,2.60
2024-05-09T08:08:04.684Z,3.02
2024-05-09T08:13:11.233Z,2.95
2024-05-09T08:18:17.784Z,2.43
2024-05-09T08:23:26.581Z,2.87
2024-05-09T08:28:32.724Z,3.56
2024-05-09T08:33:39.148Z,3.95
2024-05-09T08:38:48.124Z,4.06
2024-05-09T08:43:54.186Z,3.78
2024-05-09T08:49:01.324Z,3.17
2024-05-09T08:54:10.275Z,2.80
2024-05-09T08:59:22.820Z,4.09
2024-05-09T09:04:30.743Z,4.40
2024-05-09T09:09:43.678Z,4.36
2024-05-09T09:14:50.024Z,4.33
2024-05-09T09:19:55.935Z,4.24
2024-05-09T09:25:04.714Z,3.82
2024-05-09T09:30:27.258Z,3.60
2024-05-09T09:35:38.739Z,3.86
2024-05-09T09:40:50.550Z,4.38
2024-05-09T09:46:00.166Z,5.19
2024-05-09T09:51:06.514Z,5.21
2024-05-09T09:56:16.202Z,5.75
2024-05-09T10:01:22.446Z,5.36
2024-05-09T10:06:30.536Z,5.43
2024-05-09T10:11:49.040Z,5.64
2024-05-09T10:17:07.557Z,5.43
2024-05-09T10:22:16.753Z,5.70
2024-05-09T10:27:32.550Z,6.09
2024-05-09T10:32:44.158Z,5.85
2024-05-09T10:37:51.257Z,5.64
2024-05-09T10:43:04.530Z,5.79
2024-05-09T10:48:12.401Z,5.97
2024-05-09T10:53:19.358Z,5.32
2024-05-09T10:58:28.369Z,6.36
2024-05-09T11:03:34.729Z,6.38
2024-05-09T11:08:42.269Z,6.05
2024-05-09T11:13:53.575Z,6.86
2024-05-09T11:19:00.412Z,7.46
2024-05-09T11:24:10.495Z,7.56
2024-05-09T11:29:19.940Z,8.58
2024-05-09T11:34:26.058Z,11.67
2024-05-09T11:39:32.229Z,14.00
2024-05-09T11:44:40.802Z,11.91
2024-05-09T11:49:46.836Z,11.43
2024-05-09T11:54:53.029Z,11.26
2024-05-09T12:00:01.721Z,10.21
2024-05-09T12:05:10.837Z,9.47
2024-05-09T12:10:22.147Z,10.12
2024-05-09T12:15:37.080Z,12.22
2024-05-09T12:20:45.642Z,12.12
2024-05-09T12:25:51.562Z,11.83
2024-05-09T12:31:03.097Z,12.86
2024-05-09T12:36:09.679Z,12.09
2024-05-09T12:41:15.524Z,11.33
2024-05-09T12:46:24.359Z,11.14
2024-05-09T12:51:31.272Z,11.05
2024-05-09T12:56:37.419Z,9.87
2024-05-09T13:01:46.107Z,9.81
2024-05-09T13:06:52.220Z,10.06
2024-05-09T13:11:58.450Z,11.42
2024-05-09T13:17:07.473Z,10.89
2024-05-09T13:22:13.681Z,10.75
2024-05-09T13:27:19.837Z,10.85
2024-05-09T13:32:28.496Z,10.06
2024-05-09T13:37:35.588Z,11.30
2024-05-09T13:42:41.709Z,11.10
2024-05-09T13:47:50.477Z,12.10
2024-05-09T13:52:56.459Z,11.81
2024-05-09T13:58:02.608Z,11.45
2024-05-09T14:03:12.716Z,11.43
2024-05-09T14:08:20.319Z,10.78
2024-05-09T14:13:26.844Z,11.09
2024-05-09T14:18:35.751Z,11.12
2024-05-09T14:23:41.754Z,11.20
2024-05-09T14:28:47.750Z,11.28
2024-05-09T14:33:56.374Z,12.06
2024-05-09T14:39:02.425Z,11.48
2024-05-09T14:44:08.643Z,11.50
2024-05-09T14:49:17.309Z,10.95
2024-05-09T14:54:23.342Z,11.65
2024-05-09T14:59:29.345Z,11.98
2024-05-09T15:04:37.975Z,11.34
2024-05-09T15:09:44.388Z,11.60
2024-05-09T15:14:50.392Z,12.80
2024-05-09T15:19:59.220Z,11.55
2024-05-09T15:25:05.147Z,11.51
2024-05-09T15:30:13.244Z,12.44
2024-05-09T15:35:24.066Z,11.38
2024-05-09T15:40:37.255Z,11.40
2024-05-09T15:45:45.825Z,11.14
2024-05-09T15:50:54.480Z,11.76
2024-05-09T15:56:00.372Z,12.11
2024-05-09T16:01:06.437Z,10.73
2024-05-09T16:06:15.162Z,9.10
2024-05-09T16:11:21.149Z,8.06
2024-05-09T16:16:27.350Z,6.37
2024-05-09T16:21:36.196Z,6.03
2024-05-09T16:26:42.352Z,6.22
2024-05-09T16:31:48.343Z,5.03
2024-05-09T16:36:56.945Z,4.56
2024-05-09T16:42:02.908Z,4.48
2024-05-09T16:47:09.031Z,5.06
2024-05-09T16:52:18.064Z,5.42
2024-05-09T16:57:24.996Z,4.13
2024-05-09T17:02:31.334Z,4.74
2024-05-09T17:07:40.193Z,4.44
2024-05-09T17:12:46.186Z,3.92
2024-05-09T17:17:52.878Z,3.99
2024-05-09T17:23:01.740Z,3.76
2024-05-09T17:28:08.763Z,4.07
2024-05-09T17:33:14.948Z,3.43
2024-05-09T17:38:25.311Z,3.28
2024-05-09T17:43:31.761Z,2.94
2024-05-09T17:48:37.954Z,3.05
2024-05-09T17:53:48.031Z,2.66
2024-05-09T17:58:54.163Z,2.84
2024-05-09T18:04:00.268Z,1.97
2024-05-09T18:09:09.064Z,1.55
2024-05-09T18:14:15.059Z,1.84
2024-05-09T18:19:21.066Z,1.35
2024-05-09T18:24:29.856Z,1.54
2024-05-09T18:29:36.031Z,1.31
2024-05-09T18:34:42.031Z,1.27
2024-05-09T18:39:50.650Z,1.13
2024-05-09T18:44:56.509Z,1.72
2024-05-09T18:50:02.935Z,1.53
2024-05-09T18:55:12.269Z,1.52
2024-05-09T19:00:30.915Z,1.46
2024-05-09T19:05:44.071Z,1.28
2024-05-09T19:10:54.510Z,1.11
2024-05-09T19:16:00.780Z,1.20
2024-05-09T19:21:08.404Z,0.66
2024-05-09T19:26:18.573Z,0.34
2024-05-09T19:31:24.856Z,0.23
2024-05-09T19:36:31.396Z,0.02
2024-05-09T19:41:40.097Z,-0.02
2024-05-09T19:46:46.173Z,-0.12
2024-05-09T19:51:54.914Z,-0.08
2024-05-09T19:57:04.133Z,0.43
2024-05-09T20:02:10.251Z,0.11
2024-05-09T20:07:16.611Z,-0.72
2024-05-09T20:12:25.170Z,-0.37
2024-05-09T20:17:31.208Z,-0.69
2024-05-09T20:22:37.564Z,-1.06
2024-05-09T20:27:46.155Z,-1.27
2024-05-09T20:32:52.110Z,-0.79
2024-05-09T20:37:58.148Z,-0.40
2024-05-09T20:43:07.517Z,-0.52
2024-05-09T20:48:14.088Z,-0.76
2024-05-09T20:53:20.156Z,-0.95
2024-05-09T20:58:29.212Z,-0.68
2024-05-09T21:03:38.357Z,-0.85
2024-05-09T21:08:44.863Z,-1.11
2024-05-09T21:13:54.148Z,-2.41
2024-05-09T21:19:00.163Z,-3.65
2024-05-09T21:24:06.396Z,-4.18
2024-05-09T21:29:15.139Z,-3.78
2024-05-09T21:34:21.777Z,-3.56
2024-05-09T21:39:27.845Z,-3.78
2024-05-09T21:44:36.655Z,-3.30
2024-05-09T21:49:42.752Z,-2.75
2024-05-09T21:54:49.937Z,-2.07
2024-05-09T21:59:58.540Z,-3.33
2024-05-09T22:05:04.625Z,-3.35
2024-05-09T22:10:20.044Z,-3.41
2024-05-09T22:15:37.467Z,-4.14
2024-05-09T22:20:46.399Z,-4.09
2024-05-09T22:25:52.781Z,-4.41
2024-05-09T22:31:01.385Z,-4.96
2024-05-09T22:36:10.372Z,-5.85
2024-05-09T22:41:16.379Z,-6.22
2024-05-09T22:46:25.041Z,-5.60
2024-05-09T22:51:30.846Z,-5.16
2024-05-09T22:56:36.557Z,-5.85
2024-05-09T23:01:45.197Z,-6.42
2024-05-09T23:06:54.220Z,-6.54
2024-05-09T23:12:00.219Z,-6.40
2024-05-09T23:17:08.577Z,-6.62
2024-05-09T23:22:14.692Z,-6.52
2024-05-09T23:27:20.528Z,-6.13
2024-05-09T23:32:29.058Z,-5.52
2024-05-09T23:37:34.945Z,-5.85
2024-05-09T23:42:43.189Z,-6.56
2024-05-09T23:47:51.854Z,-6.83
2024-05-09T23:52:57.826Z,-6.03
2024-05-09T23:58:03.645Z,-7.03
